sensor_id;sensor_type;location;lat;lon;timestamp;P1;durP1;ratioP1;P2;durP2;ratioP2
67749;SDS011;54550;48.838;8.828;2023-01-10T00:00:27;6.40;;;1.23;;
67749;SDS011;54550;48.838;8.828;2023-01-10T00:02:58;2.40;;;2.13;;
67749;SDS011;54550;48.838;8.828;2023-01-10T00:05:24;3.97;;;1.60;;
67749;SDS011;54550;48.838;8.828;2023-01-10T00:07:50;5.47;;;1.70;;
67749;SDS011;54550;48.838;8.828;2023-01-10T00:10:15;7.70;;;1.47;;
67749;SDS011;54550;48.838;8.828;2023-01-10T00:12:41;2.00;;;1.53;;
67749;SDS011;54550;48.838;8.828;2023-01-10T00:15:25;3.90;;;1.55;;
67749;SDS011;54550;48.838;8.828;2023-01-10T00:17:51;1.83;;;1.50;;
67749;SDS011;54550;48.838;8.828;2023-01-10T00:20:16;2.70;;;1.67;;
67749;SDS011;54550;48.838;8.828;2023-01-10T00:22:42;2.40;;;1.83;;
67749;SDS011;54550;48.838;8.828;2023-01-10T00:25:09;3.58;;;2.70;;
67749;SDS011;54550;48.838;8.828;2023-01-10T00:27:35;2.50;;;2.30;;
67749;SDS011;54550;48.838;8.828;2023-01-10T00:30:01;2.70;;;1.70;;
67749;SDS011;54550;48.838;8.828;2023-01-10T00:32:36;7.13;;;2.03;;
67749;SDS011;54550;48.838;8.828;2023-01-10T00:35:01;5.87;;;2.23;;
67749;SDS011;54550;48.838;8.828;2023-01-10T00:37:30;9.70;;;1.70;;
67749;SDS011;54550;48.838;8.828;2023-01-10T00:39:56;4.13;;;1.40;;
67749;SDS011;54550;48.838;8.828;2023-01-10T00:42:22;1.55;;;1.25;;
67749;SDS011;54550;48.838;8.828;2023-01-10T00:45:07;1.63;;;1.20;;
67749;SDS011;54550;48.838;8.828;2023-01-10T00:47:32;1.20;;;1.00;;
67749;SDS011;54550;48.838;8.828;2023-01-10T00:49:58;2.27;;;1.10;;
67749;SDS011;54550;48.838;8.828;2023-01-10T00:52:23;3.73;;;1.10;;
67749;SDS011;54550;48.838;8.828;2023-01-10T00:54:49;2.60;;;1.30;;
67749;SDS011;54550;48.838;8.828;2023-01-10T00:57:15;4.57;;;1.40;;
67749;SDS011;54550;48.838;8.828;2023-01-10T00:59:40;2.30;;;1.00;;
67749;SDS011;54550;48.838;8.828;2023-01-10T01:02:06;3.40;;;2.20;;
67749;SDS011;54550;48.838;8.828;2023-01-10T01:04:31;1.10;;;0.80;;
67749;SDS011;54550;48.838;8.828;2023-01-10T01:06:59;3.38;;;1.25;;
67749;SDS011;54550;48.838;8.828;2023-01-10T01:09:26;3.70;;;1.10;;
67749;SDS011;54550;48.838;8.828;2023-01-10T01:11:52;1.35;;;0.82;;
67749;SDS011;54550;48.838;8.828;2023-01-10T01:14:20;2.50;;;0.90;;
67749;SDS011;54550;48.838;8.828;2023-01-10T01:16:46;0.90;;;0.90;;
67749;SDS011;54550;48.838;8.828;2023-01-10T01:19:11;7.13;;;0.80;;
67749;SDS011;54550;48.838;8.828;2023-01-10T01:21:37;0.90;;;0.70;;
67749;SDS011;54550;48.838;8.828;2023-01-10T01:24:02;0.80;;;0.73;;
67749;SDS011;54550;48.838;8.828;2023-01-10T01:26:28;0.80;;;0.60;;
67749;SDS011;54550;48.838;8.828;2023-01-10T01:28:54;0.80;;;0.77;;
67749;SDS011;54550;48.838;8.828;2023-01-10T01:31:19;1.30;;;1.00;;
67749;SDS011;54550;48.838;8.828;2023-01-10T01:33:45;3.60;;;0.87;;
67749;SDS011;54550;48.838;8.828;2023-01-10T01:36:11;0.80;;;0.50;;
67749;SDS011;54550;48.838;8.828;2023-01-10T01:38:38;0.80;;;0.80;;
67749;SDS011;54550;48.838;8.828;2023-01-10T01:41:04;1.38;;;1.13;;
67749;SDS011;54550;48.838;8.828;2023-01-10T01:44:09;3.03;;;1.45;;
67749;SDS011;54550;48.838;8.828;2023-01-10T01:46:40;1.67;;;1.30;;
67749;SDS011;54550;48.838;8.828;2023-01-10T01:49:12;6.78;;;1.17;;
67749;SDS011;54550;48.838;8.828;2023-01-10T01:51:42;3.40;;;1.50;;
67749;SDS011;54550;48.838;8.828;2023-01-10T01:54:10;1.13;;;1.02;;
67749;SDS011;54550;48.838;8.828;2023-01-10T01:59:50;12.98;;;1.35;;
67749;SDS011;54550;48.838;8.828;2023-01-10T02:02:01;3.80;;;1.77;;
67749;SDS011;54550;48.838;8.828;2023-01-10T02:04:50;3.40;;;1.15;;
67749;SDS011;54550;48.838;8.828;2023-01-10T02:07:18;1.45;;;1.23;;
67749;SDS011;54550;48.838;8.828;2023-01-10T02:12:11;3.10;;;1.40;;
67749;SDS011;54550;48.838;8.828;2023-01-10T02:14:41;1.52;;;1.27;;
67749;SDS011;54550;48.838;8.828;2023-01-10T02:17:09;2.05;;;1.30;;
67749;SDS011;54550;48.838;8.828;2023-01-10T02:19:54;1.60;;;0.90;;
67749;SDS011;54550;48.838;8.828;2023-01-10T02:28:02;1.92;;;1.15;;
67749;SDS011;54550;48.838;8.828;2023-01-10T02:31:03;1.75;;;1.13;;
67749;SDS011;54550;48.838;8.828;2023-01-10T02:33:46;4.15;;;1.70;;
67749;SDS011;54550;48.838;8.828;2023-01-10T02:42:01;4.25;;;1.25;;
67749;SDS011;54550;48.838;8.828;2023-01-10T02:44:33;7.63;;;2.08;;
67749;SDS011;54550;48.838;8.828;2023-01-10T02:47:24;9.07;;;1.88;;
67749;SDS011;54550;48.838;8.828;2023-01-10T02:49:50;2.53;;;2.10;;
67749;SDS011;54550;48.838;8.828;2023-01-10T02:52:20;8.13;;;1.67;;
67749;SDS011;54550;48.838;8.828;2023-01-10T02:54:52;10.90;;;3.00;;
67749;SDS011;54550;48.838;8.828;2023-01-10T03:02:50;5.13;;;2.58;;
67749;SDS011;54550;48.838;8.828;2023-01-10T03:05:34;8.02;;;2.30;;
67749;SDS011;54550;48.838;8.828;2023-01-10T03:08:15;8.20;;;2.30;;
67749;SDS011;54550;48.838;8.828;2023-01-10T03:13:18;2.65;;;1.85;;
67749;SDS011;54550;48.838;8.828;2023-01-10T03:15:55;6.68;;;1.80;;
67749;SDS011;54550;48.838;8.828;2023-01-10T03:18:26;2.70;;;1.27;;
67749;SDS011;54550;48.838;8.828;2023-01-10T03:20:56;1.75;;;1.60;;
67749;SDS011;54550;48.838;8.828;2023-01-10T03:23:23;2.15;;;1.70;;
67749;SDS011;54550;48.838;8.828;2023-01-10T03:25:50;3.58;;;1.58;;
67749;SDS011;54550;48.838;8.828;2023-01-10T03:28:25;8.15;;;1.88;;
67749;SDS011;54550;48.838;8.828;2023-01-10T03:31:09;7.32;;;3.03;;
67749;SDS011;54550;48.838;8.828;2023-01-10T03:33:39;3.40;;;1.50;;
67749;SDS011;54550;48.838;8.828;2023-01-10T03:36:10;20.08;;;2.55;;
67749;SDS011;54550;48.838;8.828;2023-01-10T03:41:39;7.85;;;2.55;;
67749;SDS011;54550;48.838;8.828;2023-01-10T03:44:14;7.40;;;2.40;;
67749;SDS011;54550;48.838;8.828;2023-01-10T03:50:07;13.90;;;2.40;;
67749;SDS011;54550;48.838;8.828;2023-01-10T03:52:32;5.05;;;2.72;;
67749;SDS011;54550;48.838;8.828;2023-01-10T03:54:59;9.70;;;1.92;;
67749;SDS011;54550;48.838;8.828;2023-01-10T03:57:26;5.55;;;2.70;;
67749;SDS011;54550;48.838;8.828;2023-01-10T03:59:55;14.80;;;3.40;;
67749;SDS011;54550;48.838;8.828;2023-01-10T04:02:26;5.90;;;2.75;;
67749;SDS011;54550;48.838;8.828;2023-01-10T04:04:55;11.35;;;2.13;;
67749;SDS011;54550;48.838;8.828;2023-01-10T04:07:22;8.07;;;3.20;;
67749;SDS011;54550;48.838;8.828;2023-01-10T04:09:47;8.00;;;2.17;;
67749;SDS011;54550;48.838;8.828;2023-01-10T04:12:13;8.30;;;1.83;;
67749;SDS011;54550;48.838;8.828;2023-01-10T04:14:39;4.07;;;2.60;;
67749;SDS011;54550;48.838;8.828;2023-01-10T04:17:05;15.17;;;2.77;;
67749;SDS011;54550;48.838;8.828;2023-01-10T04:19:31;16.43;;;3.70;;
67749;SDS011;54550;48.838;8.828;2023-01-10T04:21:56;11.83;;;3.27;;
67749;SDS011;54550;48.838;8.828;2023-01-10T04:24:22;15.33;;;3.20;;
67749;SDS011;54550;48.838;8.828;2023-01-10T04:26:47;14.90;;;1.87;;
67749;SDS011;54550;48.838;8.828;2023-01-10T04:29:13;14.97;;;3.33;;
67749;SDS011;54550;48.838;8.828;2023-01-10T04:31:39;18.37;;;3.73;;
67749;SDS011;54550;48.838;8.828;2023-01-10T04:34:05;16.97;;;3.77;;
67749;SDS011;54550;48.838;8.828;2023-01-10T04:36:31;11.25;;;3.92;;
67749;SDS011;54550;48.838;8.828;2023-01-10T04:38:57;9.60;;;3.03;;
67749;SDS011;54550;48.838;8.828;2023-01-10T04:41:23;5.40;;;2.63;;
67749;SDS011;54550;48.838;8.828;2023-01-10T04:43:48;9.13;;;3.13;;
67749;SDS011;54550;48.838;8.828;2023-01-10T04:46:14;18.20;;;3.50;;
67749;SDS011;54550;48.838;8.828;2023-01-10T04:48:40;16.30;;;3.40;;
67749;SDS011;54550;48.838;8.828;2023-01-10T04:51:05;11.00;;;2.80;;
67749;SDS011;54550;48.838;8.828;2023-01-10T04:53:31;15.77;;;3.23;;
67749;SDS011;54550;48.838;8.828;2023-01-10T04:56:07;23.53;;;3.67;;
67749;SDS011;54550;48.838;8.828;2023-01-10T04:58:40;28.88;;;3.78;;
67749;SDS011;54550;48.838;8.828;2023-01-10T05:01:09;29.90;;;4.27;;
67749;SDS011;54550;48.838;8.828;2023-01-10T05:03:36;16.95;;;2.47;;
67749;SDS011;54550;48.838;8.828;2023-01-10T05:06:02;15.47;;;4.07;;
67749;SDS011;54550;48.838;8.828;2023-01-10T05:08:29;25.27;;;5.70;;
67749;SDS011;54550;48.838;8.828;2023-01-10T05:10:55;23.37;;;8.53;;
67749;SDS011;54550;48.838;8.828;2023-01-10T05:13:20;37.30;;;8.30;;
67749;SDS011;54550;48.838;8.828;2023-01-10T05:15:46;18.00;;;4.23;;
67749;SDS011;54550;48.838;8.828;2023-01-10T05:18:12;21.50;;;4.97;;
67749;SDS011;54550;48.838;8.828;2023-01-10T05:20:37;28.17;;;9.87;;
67749;SDS011;54550;48.838;8.828;2023-01-10T05:23:03;25.40;;;7.20;;
67749;SDS011;54550;48.838;8.828;2023-01-10T05:25:28;23.37;;;5.47;;
67749;SDS011;54550;48.838;8.828;2023-01-10T05:27:54;21.67;;;3.90;;
67749;SDS011;54550;48.838;8.828;2023-01-10T05:30:19;21.57;;;3.00;;
67749;SDS011;54550;48.838;8.828;2023-01-10T05:32:45;15.90;;;3.50;;
67749;SDS011;54550;48.838;8.828;2023-01-10T05:35:11;12.57;;;3.80;;
67749;SDS011;54550;48.838;8.828;2023-01-10T05:37:37;21.57;;;3.47;;
67749;SDS011;54550;48.838;8.828;2023-01-10T05:40:03;14.27;;;3.43;;
67749;SDS011;54550;48.838;8.828;2023-01-10T05:42:29;17.90;;;3.25;;
67749;SDS011;54550;48.838;8.828;2023-01-10T05:44:54;9.90;;;2.37;;
67749;SDS011;54550;48.838;8.828;2023-01-10T05:47:20;18.23;;;3.07;;
67749;SDS011;54550;48.838;8.828;2023-01-10T05:49:45;12.00;;;2.17;;
67749;SDS011;54550;48.838;8.828;2023-01-10T05:52:11;6.27;;;1.90;;
67749;SDS011;54550;48.838;8.828;2023-01-10T05:54:37;20.40;;;3.60;;
67749;SDS011;54550;48.838;8.828;2023-01-10T05:57:47;9.43;;;1.90;;
67749;SDS011;54550;48.838;8.828;2023-01-10T06:00:13;16.20;;;2.40;;
67749;SDS011;54550;48.838;8.828;2023-01-10T06:02:39;17.15;;;2.78;;
67749;SDS011;54550;48.838;8.828;2023-01-10T06:05:05;38.00;;;4.17;;
67749;SDS011;54550;48.838;8.828;2023-01-10T06:07:31;29.45;;;5.15;;
67749;SDS011;54550;48.838;8.828;2023-01-10T06:09:56;31.40;;;4.50;;
67749;SDS011;54550;48.838;8.828;2023-01-10T06:12:22;10.33;;;2.03;;
67749;SDS011;54550;48.838;8.828;2023-01-10T06:14:47;14.40;;;3.17;;
67749;SDS011;54550;48.838;8.828;2023-01-10T06:17:13;15.60;;;3.00;;
67749;SDS011;54550;48.838;8.828;2023-01-10T06:19:38;16.43;;;4.93;;
67749;SDS011;54550;48.838;8.828;2023-01-10T06:22:04;18.27;;;2.53;;
67749;SDS011;54550;48.838;8.828;2023-01-10T06:24:29;19.40;;;3.00;;
67749;SDS011;54550;48.838;8.828;2023-01-10T06:26:55;24.17;;;2.50;;
67749;SDS011;54550;48.838;8.828;2023-01-10T06:29:21;12.13;;;4.53;;
67749;SDS011;54550;48.838;8.828;2023-01-10T06:31:47;18.88;;;4.45;;
67749;SDS011;54550;48.838;8.828;2023-01-10T06:34:12;28.00;;;7.13;;
67749;SDS011;54550;48.838;8.828;2023-01-10T06:36:38;18.67;;;5.63;;
67749;SDS011;54550;48.838;8.828;2023-01-10T06:39:03;28.03;;;6.40;;
67749;SDS011;54550;48.838;8.828;2023-01-10T06:41:29;15.50;;;5.90;;
67749;SDS011;54550;48.838;8.828;2023-01-10T06:43:54;9.57;;;2.60;;
67749;SDS011;54550;48.838;8.828;2023-01-10T06:46:20;8.70;;;1.73;;
67749;SDS011;54550;48.838;8.828;2023-01-10T06:48:46;19.53;;;3.70;;
67749;SDS011;54550;48.838;8.828;2023-01-10T06:51:12;13.88;;;3.00;;
67749;SDS011;54550;48.838;8.828;2023-01-10T06:53:39;17.65;;;3.08;;
67749;SDS011;54550;48.838;8.828;2023-01-10T06:56:05;29.60;;;3.65;;
67749;SDS011;54550;48.838;8.828;2023-01-10T06:58:31;17.67;;;2.63;;
67749;SDS011;54550;48.838;8.828;2023-01-10T07:00:58;20.83;;;3.40;;
67749;SDS011;54550;48.838;8.828;2023-01-10T07:03:24;21.60;;;2.80;;
67749;SDS011;54550;48.838;8.828;2023-01-10T07:05:49;9.03;;;3.53;;
67749;SDS011;54550;48.838;8.828;2023-01-10T07:08:15;14.50;;;2.47;;
67749;SDS011;54550;48.838;8.828;2023-01-10T07:10:41;10.47;;;2.30;;
67749;SDS011;54550;48.838;8.828;2023-01-10T07:13:07;19.13;;;2.67;;
67749;SDS011;54550;48.838;8.828;2023-01-10T07:15:32;23.53;;;3.63;;
67749;SDS011;54550;48.838;8.828;2023-01-10T07:17:58;17.33;;;2.20;;
67749;SDS011;54550;48.838;8.828;2023-01-10T07:20:24;17.63;;;3.00;;
67749;SDS011;54550;48.838;8.828;2023-01-10T07:22:53;12.00;;;2.97;;
67749;SDS011;54550;48.838;8.828;2023-01-10T07:25:20;16.40;;;3.63;;
67749;SDS011;54550;48.838;8.828;2023-01-10T07:27:45;42.53;;;3.70;;
67749;SDS011;54550;48.838;8.828;2023-01-10T07:30:13;19.20;;;4.70;;
67749;SDS011;54550;48.838;8.828;2023-01-10T07:32:38;24.53;;;3.00;;
67749;SDS011;54550;48.838;8.828;2023-01-10T07:35:04;25.90;;;4.83;;
67749;SDS011;54550;48.838;8.828;2023-01-10T07:37:29;16.23;;;6.20;;
67749;SDS011;54550;48.838;8.828;2023-01-10T07:39:55;16.80;;;2.67;;
67749;SDS011;54550;48.838;8.828;2023-01-10T07:42:20;19.40;;;3.80;;
67749;SDS011;54550;48.838;8.828;2023-01-10T07:44:46;13.53;;;2.60;;
67749;SDS011;54550;48.838;8.828;2023-01-10T07:47:12;6.63;;;2.10;;
67749;SDS011;54550;48.838;8.828;2023-01-10T07:49:37;10.10;;;2.93;;
67749;SDS011;54550;48.838;8.828;2023-01-10T07:52:03;33.73;;;3.00;;
67749;SDS011;54550;48.838;8.828;2023-01-10T07:54:29;15.30;;;4.57;;
67749;SDS011;54550;48.838;8.828;2023-01-10T07:56:54;14.43;;;4.50;;
67749;SDS011;54550;48.838;8.828;2023-01-10T07:59:20;18.47;;;2.53;;
67749;SDS011;54550;48.838;8.828;2023-01-10T08:01:45;14.90;;;2.63;;
67749;SDS011;54550;48.838;8.828;2023-01-10T08:04:12;25.45;;;3.35;;
67749;SDS011;54550;48.838;8.828;2023-01-10T08:06:38;13.27;;;2.77;;
67749;SDS011;54550;48.838;8.828;2023-01-10T08:09:03;20.87;;;3.57;;
67749;SDS011;54550;48.838;8.828;2023-01-10T08:11:29;13.07;;;2.50;;
67749;SDS011;54550;48.838;8.828;2023-01-10T08:13:55;20.70;;;3.00;;
67749;SDS011;54550;48.838;8.828;2023-01-10T08:16:21;19.40;;;3.73;;
67749;SDS011;54550;48.838;8.828;2023-01-10T08:18:46;14.30;;;3.53;;
67749;SDS011;54550;48.838;8.828;2023-01-10T08:21:12;14.23;;;2.47;;
67749;SDS011;54550;48.838;8.828;2023-01-10T08:23:37;28.73;;;4.03;;
67749;SDS011;54550;48.838;8.828;2023-01-10T08:26:03;13.70;;;2.83;;
67749;SDS011;54550;48.838;8.828;2023-01-10T08:28:30;21.17;;;3.95;;
67749;SDS011;54550;48.838;8.828;2023-01-10T08:30:55;5.95;;;2.47;;
67749;SDS011;54550;48.838;8.828;2023-01-10T08:33:21;12.23;;;3.07;;
67749;SDS011;54550;48.838;8.828;2023-01-10T08:35:48;25.25;;;3.45;;
67749;SDS011;54550;48.838;8.828;2023-01-10T08:38:14;26.35;;;3.55;;
67749;SDS011;54550;48.838;8.828;2023-01-10T08:40:40;10.35;;;2.38;;
67749;SDS011;54550;48.838;8.828;2023-01-10T08:43:06;15.67;;;3.17;;
67749;SDS011;54550;48.838;8.828;2023-01-10T08:45:34;10.75;;;2.25;;
67749;SDS011;54550;48.838;8.828;2023-01-10T08:48:01;19.83;;;3.60;;
67749;SDS011;54550;48.838;8.828;2023-01-10T08:50:28;10.77;;;3.58;;
67749;SDS011;54550;48.838;8.828;2023-01-10T08:52:56;17.23;;;2.95;;
67749;SDS011;54550;48.838;8.828;2023-01-10T08:55:23;16.50;;;3.53;;
67749;SDS011;54550;48.838;8.828;2023-01-10T08:57:49;7.82;;;2.17;;
67749;SDS011;54550;48.838;8.828;2023-01-10T09:00:15;7.70;;;2.10;;
67749;SDS011;54550;48.838;8.828;2023-01-10T09:02:41;11.93;;;2.20;;
67749;SDS011;54550;48.838;8.828;2023-01-10T09:05:07;14.13;;;2.42;;
67749;SDS011;54550;48.838;8.828;2023-01-10T09:07:34;9.93;;;2.42;;
67749;SDS011;54550;48.838;8.828;2023-01-10T09:10:00;8.40;;;2.20;;
67749;SDS011;54550;48.838;8.828;2023-01-10T09:12:25;15.30;;;3.07;;
67749;SDS011;54550;48.838;8.828;2023-01-10T09:15:10;21.20;;;2.95;;
67749;SDS011;54550;48.838;8.828;2023-01-10T09:17:35;15.27;;;2.90;;
67749;SDS011;54550;48.838;8.828;2023-01-10T09:20:01;12.20;;;2.93;;
67749;SDS011;54550;48.838;8.828;2023-01-10T09:22:30;6.07;;;2.40;;
67749;SDS011;54550;48.838;8.828;2023-01-10T09:24:56;14.97;;;3.20;;
67749;SDS011;54550;48.838;8.828;2023-01-10T09:27:21;12.97;;;2.63;;
67749;SDS011;54550;48.838;8.828;2023-01-10T09:29:47;13.97;;;2.43;;
67749;SDS011;54550;48.838;8.828;2023-01-10T09:32:12;10.07;;;2.10;;
67749;SDS011;54550;48.838;8.828;2023-01-10T09:34:38;10.80;;;2.73;;
67749;SDS011;54550;48.838;8.828;2023-01-10T09:37:03;4.00;;;1.40;;
67749;SDS011;54550;48.838;8.828;2023-01-10T09:39:29;6.00;;;1.50;;
67749;SDS011;54550;48.838;8.828;2023-01-10T09:44:42;9.88;;;1.73;;
67749;SDS011;54550;48.838;8.828;2023-01-10T09:53:13;9.70;;;2.25;;
67749;SDS011;54550;48.838;8.828;2023-01-10T09:55:44;10.85;;;2.25;;
67749;SDS011;54550;48.838;8.828;2023-01-10T09:58:16;4.50;;;1.83;;
67749;SDS011;54550;48.838;8.828;2023-01-10T10:00:51;11.38;;;1.95;;
67749;SDS011;54550;48.838;8.828;2023-01-10T10:05:51;5.28;;;1.45;;
67749;SDS011;54550;48.838;8.828;2023-01-10T10:08:17;11.03;;;1.57;;
67749;SDS011;54550;48.838;8.828;2023-01-10T10:10:51;27.83;;;2.45;;
67749;SDS011;54550;48.838;8.828;2023-01-10T10:13:35;8.45;;;2.17;;
67749;SDS011;54550;48.838;8.828;2023-01-10T10:21:52;4.18;;;1.40;;
67749;SDS011;54550;48.838;8.828;2023-01-10T10:29:46;18.65;;;2.70;;
67749;SDS011;54550;48.838;8.828;2023-01-10T10:32:25;8.88;;;2.05;;
67749;SDS011;54550;48.838;8.828;2023-01-10T10:35:01;12.90;;;1.60;;
67749;SDS011;54550;48.838;8.828;2023-01-10T10:37:46;3.67;;;1.52;;
67749;SDS011;54550;48.838;8.828;2023-01-10T10:40:16;7.93;;;2.22;;
67749;SDS011;54550;48.838;8.828;2023-01-10T10:42:53;6.15;;;1.50;;
67749;SDS011;54550;48.838;8.828;2023-01-10T10:45:37;5.63;;;1.83;;
67749;SDS011;54550;48.838;8.828;2023-01-10T10:53:31;8.75;;;1.75;;
67749;SDS011;54550;48.838;8.828;2023-01-10T10:55:58;3.95;;;1.52;;
67749;SDS011;54550;48.838;8.828;2023-01-10T10:58:25;9.25;;;2.30;;
67749;SDS011;54550;48.838;8.828;2023-01-10T11:00:54;9.63;;;2.03;;
67749;SDS011;54550;48.838;8.828;2023-01-10T11:06:02;11.43;;;1.65;;
67749;SDS011;54550;48.838;8.828;2023-01-10T11:08:31;11.05;;;2.28;;
67749;SDS011;54550;48.838;8.828;2023-01-10T11:11:05;8.63;;;2.20;;
67749;SDS011;54550;48.838;8.828;2023-01-10T11:13:49;6.55;;;2.15;;
67749;SDS011;54550;48.838;8.828;2023-01-10T11:16:31;13.98;;;2.45;;
67749;SDS011;54550;48.838;8.828;2023-01-10T11:21:51;8.60;;;1.63;;
67749;SDS011;54550;48.838;8.828;2023-01-10T11:24:27;12.63;;;2.75;;
67749;SDS011;54550;48.838;8.828;2023-01-10T11:27:04;6.38;;;1.67;;
67749;SDS011;54550;48.838;8.828;2023-01-10T11:29:43;12.05;;;2.55;;
67749;SDS011;54550;48.838;8.828;2023-01-10T11:32:14;9.52;;;3.13;;
67749;SDS011;54550;48.838;8.828;2023-01-10T11:34:52;8.23;;;1.38;;
67749;SDS011;54550;48.838;8.828;2023-01-10T11:37:24;21.10;;;3.08;;
67749;SDS011;54550;48.838;8.828;2023-01-10T11:42:55;7.15;;;2.00;;
67749;SDS011;54550;48.838;8.828;2023-01-10T11:45:22;9.88;;;2.42;;
67749;SDS011;54550;48.838;8.828;2023-01-10T11:50:42;6.18;;;1.50;;
67749;SDS011;54550;48.838;8.828;2023-01-10T11:53:30;8.13;;;1.48;;
67749;SDS011;54550;48.838;8.828;2023-01-10T11:56:02;10.18;;;1.60;;
67749;SDS011;54550;48.838;8.828;2023-01-10T11:58:29;10.75;;;1.63;;
67749;SDS011;54550;48.838;8.828;2023-01-10T12:00:57;8.18;;;1.95;;
67749;SDS011;54550;48.838;8.828;2023-01-10T12:03:24;13.83;;;2.20;;
67749;SDS011;54550;48.838;8.828;2023-01-10T12:08:29;15.45;;;3.03;;
67749;SDS011;54550;48.838;8.828;2023-01-10T12:10:57;28.35;;;2.40;;
67749;SDS011;54550;48.838;8.828;2023-01-10T12:13:29;7.75;;;1.17;;
67749;SDS011;54550;48.838;8.828;2023-01-10T12:18:57;10.07;;;2.17;;
67749;SDS011;54550;48.838;8.828;2023-01-10T12:21:38;3.95;;;1.65;;
67749;SDS011;54550;48.838;8.828;2023-01-10T12:24:28;12.35;;;1.80;;
67749;SDS011;54550;48.838;8.828;2023-01-10T12:26:56;6.93;;;1.90;;
67749;SDS011;54550;48.838;8.828;2023-01-10T12:29:27;10.07;;;1.75;;
67749;SDS011;54550;48.838;8.828;2023-01-10T12:31:58;4.80;;;1.48;;
67749;SDS011;54550;48.838;8.828;2023-01-10T12:34:26;13.95;;;1.77;;
67749;SDS011;54550;48.838;8.828;2023-01-10T12:37:16;9.20;;;2.70;;
67749;SDS011;54550;48.838;8.828;2023-01-10T12:39:52;12.65;;;3.20;;
67749;SDS011;54550;48.838;8.828;2023-01-10T12:42:26;7.18;;;1.52;;
67749;SDS011;54550;48.838;8.828;2023-01-10T12:45:27;8.32;;;2.05;;
67749;SDS011;54550;48.838;8.828;2023-01-10T12:48:00;13.98;;;1.00;;
67749;SDS011;54550;48.838;8.828;2023-01-10T12:50:38;7.15;;;1.10;;
67749;SDS011;54550;48.838;8.828;2023-01-10T12:55:34;3.97;;;1.20;;
67749;SDS011;54550;48.838;8.828;2023-01-10T12:58:04;7.80;;;1.50;;
67749;SDS011;54550;48.838;8.828;2023-01-10T13:00:44;3.97;;;1.45;;
67749;SDS011;54550;48.838;8.828;2023-01-10T13:03:12;3.53;;;1.15;;
67749;SDS011;54550;48.838;8.828;2023-01-10T13:05:44;20.27;;;2.90;;
67749;SDS011;54550;48.838;8.828;2023-01-10T13:08:14;3.78;;;1.00;;
67749;SDS011;54550;48.838;8.828;2023-01-10T13:10:44;3.60;;;1.55;;
67749;SDS011;54550;48.838;8.828;2023-01-10T13:13:18;7.88;;;1.38;;
67749;SDS011;54550;48.838;8.828;2023-01-10T13:15:51;14.05;;;1.48;;
67749;SDS011;54550;48.838;8.828;2023-01-10T13:18:24;8.63;;;1.65;;
67749;SDS011;54550;48.838;8.828;2023-01-10T13:21:05;9.73;;;1.55;;
67749;SDS011;54550;48.838;8.828;2023-01-10T13:23:38;11.95;;;1.98;;
67749;SDS011;54550;48.838;8.828;2023-01-10T13:26:14;8.75;;;1.35;;
67749;SDS011;54550;48.838;8.828;2023-01-10T13:28:42;13.33;;;1.90;;
67749;SDS011;54550;48.838;8.828;2023-01-10T13:31:25;4.88;;;0.95;;
67749;SDS011;54550;48.838;8.828;2023-01-10T13:33:56;9.77;;;1.60;;
67749;SDS011;54550;48.838;8.828;2023-01-10T13:36:26;4.82;;;1.40;;
67749;SDS011;54550;48.838;8.828;2023-01-10T13:38:57;4.75;;;1.45;;
67749;SDS011;54550;48.838;8.828;2023-01-10T13:53:39;6.10;;;1.48;;
67749;SDS011;54550;48.838;8.828;2023-01-10T13:55:59;9.90;;;1.20;;
67749;SDS011;54550;48.838;8.828;2023-01-10T13:58:40;4.87;;;1.63;;
67749;SDS011;54550;48.838;8.828;2023-01-10T14:01:33;8.43;;;1.05;;
67749;SDS011;54550;48.838;8.828;2023-01-10T14:04:20;12.32;;;1.92;;
67749;SDS011;54550;48.838;8.828;2023-01-10T14:09:50;1.63;;;1.27;;
67749;SDS011;54550;48.838;8.828;2023-01-10T14:15:19;4.20;;;1.38;;
67749;SDS011;54550;48.838;8.828;2023-01-10T14:18:32;4.82;;;1.70;;
67749;SDS011;54550;48.838;8.828;2023-01-10T14:20:43;4.78;;;1.20;;
67749;SDS011;54550;48.838;8.828;2023-01-10T14:23:19;6.15;;;2.38;;
67749;SDS011;54550;48.838;8.828;2023-01-10T14:25:54;9.13;;;3.75;;
67749;SDS011;54550;48.838;8.828;2023-01-10T14:28:24;6.40;;;2.50;;
67749;SDS011;54550;48.838;8.828;2023-01-10T14:33:26;6.03;;;1.45;;
67749;SDS011;54550;48.838;8.828;2023-01-10T14:35:54;9.15;;;1.20;;
67749;SDS011;54550;48.838;8.828;2023-01-10T14:38:30;2.78;;;0.98;;
67749;SDS011;54550;48.838;8.828;2023-01-10T14:41:02;4.05;;;1.00;;
67749;SDS011;54550;48.838;8.828;2023-01-10T14:44:05;11.88;;;1.70;;
67749;SDS011;54550;48.838;8.828;2023-01-10T14:49:22;8.00;;;1.88;;
67749;SDS011;54550;48.838;8.828;2023-01-10T14:51:48;2.35;;;0.88;;
67749;SDS011;54550;48.838;8.828;2023-01-10T14:54:15;6.57;;;1.00;;
67749;SDS011;54550;48.838;8.828;2023-01-10T14:56:47;10.93;;;2.25;;
67749;SDS011;54550;48.838;8.828;2023-01-10T14:59:26;6.25;;;1.20;;
67749;SDS011;54550;48.838;8.828;2023-01-10T15:01:57;11.52;;;1.75;;
67749;SDS011;54550;48.838;8.828;2023-01-10T15:07:19;12.18;;;1.77;;
67749;SDS011;54550;48.838;8.828;2023-01-10T15:09:48;2.70;;;0.90;;
67749;SDS011;54550;48.838;8.828;2023-01-10T15:12:14;2.45;;;0.80;;
67749;SDS011;54550;48.838;8.828;2023-01-10T15:14:41;4.63;;;1.60;;
67749;SDS011;54550;48.838;8.828;2023-01-10T15:17:09;12.03;;;1.63;;
67749;SDS011;54550;48.838;8.828;2023-01-10T15:19:41;14.55;;;2.13;;
67749;SDS011;54550;48.838;8.828;2023-01-10T15:22:17;1.80;;;1.00;;
67749;SDS011;54550;48.838;8.828;2023-01-10T15:27:47;6.57;;;1.58;;
67749;SDS011;54550;48.838;8.828;2023-01-10T15:30:18;3.05;;;0.90;;
67749;SDS011;54550;48.838;8.828;2023-01-10T15:32:52;6.95;;;1.20;;
67749;SDS011;54550;48.838;8.828;2023-01-10T15:35:24;8.25;;;2.47;;
67749;SDS011;54550;48.838;8.828;2023-01-10T15:37:56;12.27;;;1.52;;
67749;SDS011;54550;48.838;8.828;2023-01-10T15:40:31;1.50;;;0.75;;
67749;SDS011;54550;48.838;8.828;2023-01-10T15:43:12;5.57;;;1.20;;
67749;SDS011;54550;48.838;8.828;2023-01-10T15:45:48;12.63;;;2.38;;
67749;SDS011;54550;48.838;8.828;2023-01-10T15:50:58;6.65;;;1.70;;
67749;SDS011;54550;48.838;8.828;2023-01-10T15:56:28;3.17;;;1.40;;
67749;SDS011;54550;48.838;8.828;2023-01-10T15:58:55;6.05;;;1.27;;
67749;SDS011;54550;48.838;8.828;2023-01-10T16:01:21;8.40;;;1.50;;
67749;SDS011;54550;48.838;8.828;2023-01-10T16:03:51;10.00;;;1.67;;
67749;SDS011;54550;48.838;8.828;2023-01-10T16:08:55;11.45;;;1.98;;
67749;SDS011;54550;48.838;8.828;2023-01-10T16:14:15;10.25;;;2.38;;
67749;SDS011;54550;48.838;8.828;2023-01-10T16:16:41;7.03;;;0.90;;
67749;SDS011;54550;48.838;8.828;2023-01-10T16:19:06;11.07;;;2.07;;
67749;SDS011;54550;48.838;8.828;2023-01-10T16:21:33;23.77;;;2.23;;
67749;SDS011;54550;48.838;8.828;2023-01-10T16:24:04;5.75;;;1.20;;
67749;SDS011;54550;48.838;8.828;2023-01-10T16:26:31;3.85;;;1.33;;
67749;SDS011;54550;48.838;8.828;2023-01-10T16:28:57;12.02;;;2.03;;
67749;SDS011;54550;48.838;8.828;2023-01-10T16:31:23;9.33;;;2.10;;
67749;SDS011;54550;48.838;8.828;2023-01-10T16:33:48;4.10;;;1.43;;
67749;SDS011;54550;48.838;8.828;2023-01-10T16:36:15;11.20;;;2.30;;
67749;SDS011;54550;48.838;8.828;2023-01-10T16:38:43;4.43;;;1.52;;
67749;SDS011;54550;48.838;8.828;2023-01-10T16:41:09;6.80;;;1.52;;
67749;SDS011;54550;48.838;8.828;2023-01-10T16:43:54;4.70;;;1.60;;
67749;SDS011;54550;48.838;8.828;2023-01-10T16:46:20;14.00;;;3.27;;
67749;SDS011;54550;48.838;8.828;2023-01-10T16:48:46;9.30;;;1.60;;
67749;SDS011;54550;48.838;8.828;2023-01-10T16:51:21;11.80;;;3.33;;
67749;SDS011;54550;48.838;8.828;2023-01-10T16:53:52;22.17;;;6.97;;